Time;durP1;ratioP1;P1;durP2;ratioP2;P2;SDS_P1;SDS_P2;PMS_P1;PMS_P2;Temp;Humidity;BMP_temperature;BMP_pressure;BME280_temperature;BME280_humidity;BME280_pressure;Samples;Min_cycle;Max_cycle;Signal;HPM_P1;HPM_P2
2022/09/16 00:00:44;;;;;;;;;;;23.10;52.30;;;;;;484510;242;1077;-74
2022/09/16 00:02:46;;;;;;;;;;;23.00;52.30;;;;;;484308;246;1257;-74
2022/09/16 00:04:47;;;;;;;;;;;23.20;52.00;;;;;;484272;246;1214;-74
2022/09/16 00:06:48;;;;;;;;;;;23.30;51.70;;;;;;484571;246;2204;-74
2022/09/16 00:08:50;;;;;;;;;;;23.20;51.90;;;;;;484341;246;1199;-74
2022/09/16 00:10:51;;;;;;;;;;;23.20;52.00;;;;;;484262;246;1179;-74
2022/09/16 00:12:52;;;;;;;;;;;23.10;52.10;;;;;;484288;246;1163;-74
2022/09/16 00:14:54;;;;;;;;;;;23.10;52.20;;;;;;484290;246;1188;-74
2022/09/16 00:16:55;;;;;;;;;;;23.40;51.70;;;;;;484275;246;1222;-74
2022/09/16 00:18:56;;;;;;;;;;;23.30;51.70;;;;;;484281;246;1194;-74
2022/09/16 00:20:58;;;;;;;;;;;23.30;51.70;;;;;;484271;246;1250;-74
2022/09/16 00:22:59;;;;;;;;;;;23.20;51.90;;;;;;484317;246;1126;-74
2022/09/16 00:25:00;;;;;;;;;;;23.20;51.90;;;;;;484282;246;1144;-74
2022/09/16 00:27:02;;;;;;;;;;;23.30;52.00;;;;;;484297;246;2188;-74
2022/09/16 00:29:03;;;;;;;;;;;23.30;51.80;;;;;;484254;246;1280;-74
2022/09/16 00:31:04;;;;;;;;;;;23.50;51.60;;;;;;484374;246;1209;-74
2022/09/16 00:33:06;;;;;;;;;;;23.50;51.40;;;;;;484324;246;1126;-74
2022/09/16 00:35:07;;;;;;;;;;;23.50;51.40;;;;;;484386;246;1164;-74
2022/09/16 00:37:08;;;;;;;;;;;23.50;51.30;;;;;;484306;246;1189;-74
2022/09/16 00:39:10;;;;;;;;;;;23.50;51.30;;;;;;484223;246;1178;-74
2022/09/16 00:41:11;;;;;;;;;;;23.20;51.80;;;;;;484344;246;1167;-74
2022/09/16 00:43:12;;;;;;;;;;;23.40;51.70;;;;;;484269;246;1168;-74
2022/09/16 00:45:14;;;;;;;;;;;23.30;51.90;;;;;;484254;246;1191;-74
2022/09/16 00:47:15;;;;;;;;;;;23.20;52.10;;;;;;484319;246;2186;-74
2022/09/16 00:49:16;;;;;;;;;;;23.30;52.10;;;;;;484315;246;1100;-74
2022/09/16 00:51:19;;;;;;;;;;;23.40;51.80;;;;;;484367;246;1074;-74
2022/09/16 00:53:19;;;;;;;;;;;23.30;52.00;;;;;;484156;242;1497;-74
2022/09/16 00:55:20;;;;;;;;;;;23.30;51.80;;;;;;484263;246;1204;-74
2022/09/16 00:57:22;;;;;;;;;;;23.60;51.50;;;;;;484298;246;1169;-74
2022/09/16 00:59:23;;;;;;;;;;;23.70;50.90;;;;;;484307;246;1194;-74
2022/09/16 01:01:24;;;;;;;;;;;23.50;51.40;;;;;;484365;246;1103;-74
2022/09/16 01:03:26;;;;;;;;;;;23.40;51.60;;;;;;484330;246;1258;-74
2022/09/16 01:05:27;;;;;;;;;;;23.20;52.10;;;;;;484379;246;1129;-74
2022/09/16 01:07:28;;;;;;;;;;;23.20;52.10;;;;;;484290;246;2205;-74
2022/09/16 01:09:30;;;;;;;;;;;23.20;52.00;;;;;;484251;246;1219;-74
2022/09/16 01:11:31;;;;;;;;;;;23.40;52.00;;;;;;484344;246;1127;-74
2022/09/16 01:13:32;;;;;;;;;;;23.40;51.70;;;;;;484294;246;1187;-74
2022/09/16 01:15:34;;;;;;;;;;;23.40;51.70;;;;;;484272;246;1207;-74
2022/09/16 01:17:35;;;;;;;;;;;23.40;51.70;;;;;;484296;246;1081;-74
2022/09/16 01:19:36;;;;;;;;;;;23.30;51.90;;;;;;484307;246;1121;-74
2022/09/16 01:21:38;;;;;;;;;;;23.20;52.10;;;;;;484518;242;1174;-74
2022/09/16 01:23:39;;;;;;;;;;;23.20;52.30;;;;;;484283;246;1229;-74
2022/09/16 01:25:40;;;;;;;;;;;23.30;52.10;;;;;;484329;246;1341;-74
2022/09/16 01:27:42;;;;;;;;;;;23.20;52.30;;;;;;484306;246;2160;-74
2022/09/16 01:29:43;;;;;;;;;;;23.20;52.30;;;;;;484358;246;1141;-74
2022/09/16 01:31:44;;;;;;;;;;;23.20;52.30;;;;;;484295;246;1177;-74
2022/09/16 01:33:46;;;;;;;;;;;23.20;52.20;;;;;;484441;246;1197;-74
2022/09/16 01:35:47;;;;;;;;;;;23.30;52.10;;;;;;484259;246;1136;-74
2022/09/16 01:37:49;;;;;;;;;;;23.30;52.10;;;;;;484296;246;1218;-74
2022/09/16 01:39:50;;;;;;;;;;;23.20;52.10;;;;;;484263;246;1149;-74
2022/09/16 01:41:51;;;;;;;;;;;23.20;52.00;;;;;;484326;243;1094;-74
2022/09/16 01:43:53;;;;;;;;;;;23.10;52.20;;;;;;484295;246;1190;-74
2022/09/16 01:45:54;;;;;;;;;;;23.10;52.30;;;;;;484351;237;2191;-74
2022/09/16 01:47:56;;;;;;;;;;;23.00;52.50;;;;;;484346;246;1147;-74
2022/09/16 01:49:57;;;;;;;;;;;23.10;52.30;;;;;;484299;246;1154;-74
2022/09/16 01:51:58;;;;;;;;;;;23.20;52.10;;;;;;484326;246;1169;-74
2022/09/16 01:53:59;;;;;;;;;;;23.20;52.00;;;;;;484297;246;1148;-74
2022/09/16 01:56:01;;;;;;;;;;;23.10;52.20;;;;;;484445;246;1122;-74
2022/09/16 01:58:02;;;;;;;;;;;23.10;52.30;;;;;;484314;246;1186;-74
2022/09/16 02:00:03;;;;;;;;;;;23.10;52.30;;;;;;484295;246;1099;-74
2022/09/16 02:02:05;;;;;;;;;;;23.30;52.00;;;;;;484314;246;1136;-74
2022/09/16 02:04:06;;;;;;;;;;;23.20;51.90;;;;;;484323;246;1066;-74
2022/09/16 02:06:08;;;;;;;;;;;23.20;51.90;;;;;;484295;246;2148;-74
2022/09/16 02:08:09;;;;;;;;;;;23.20;52.10;;;;;;484336;246;1189;-74
2022/09/16 02:10:10;;;;;;;;;;;23.10;52.30;;;;;;484466;246;1061;-74
2022/09/16 02:12:12;;;;;;;;;;;23.00;52.30;;;;;;484331;246;1102;-74
2022/09/16 02:14:13;;;;;;;;;;;23.00;52.30;;;;;;484321;246;1107;-74
2022/09/16 02:16:14;;;;;;;;;;;23.00;52.60;;;;;;484505;246;1054;-74
2022/09/16 02:18:16;;;;;;;;;;;23.10;52.30;;;;;;484297;246;1022;-74
2022/09/16 02:20:17;;;;;;;;;;;23.10;52.30;;;;;;484385;246;1108;-74
2022/09/16 02:22:18;;;;;;;;;;;23.10;52.10;;;;;;484304;243;1172;-74
2022/09/16 02:24:20;;;;;;;;;;;23.20;52.30;;;;;;484266;246;1232;-74
2022/09/16 02:26:21;;;;;;;;;;;23.10;52.30;;;;;;484440;246;2217;-74
2022/09/16 02:28:22;;;;;;;;;;;23.10;52.30;;;;;;484318;246;1087;-74
2022/09/16 02:30:24;;;;;;;;;;;23.00;52.30;;;;;;484291;246;1408;-74
2022/09/16 02:32:25;;;;;;;;;;;23.00;52.40;;;;;;484346;246;1132;-74
2022/09/16 02:34:26;;;;;;;;;;;23.10;52.30;;;;;;484373;246;1234;-74
2022/09/16 02:36:28;;;;;;;;;;;22.90;52.60;;;;;;484312;246;1108;-74
2022/09/16 02:38:29;;;;;;;;;;;23.00;52.60;;;;;;484298;242;1198;-74
2022/09/16 02:40:30;;;;;;;;;;;23.10;52.30;;;;;;484274;246;1102;-74
2022/09/16 02:42:32;;;;;;;;;;;23.10;52.20;;;;;;484315;246;1123;-74
2022/09/16 02:44:33;;;;;;;;;;;23.10;52.30;;;;;;484360;246;1117;-74
2022/09/16 02:46:35;;;;;;;;;;;23.10;52.30;;;;;;484300;246;2256;-74
2022/09/16 02:48:36;;;;;;;;;;;23.00;52.30;;;;;;484323;246;1185;-74
2022/09/16 02:50:37;;;;;;;;;;;23.10;52.20;;;;;;484387;242;1153;-74
2022/09/16 02:52:39;;;;;;;;;;;23.10;52.30;;;;;;484286;246;1138;-74
2022/09/16 02:54:40;;;;;;;;;;;23.10;52.40;;;;;;484314;246;1239;-74
2022/09/16 02:56:41;;;;;;;;;;;23.20;52.20;;;;;;484394;246;1174;-74
2022/09/16 02:58:43;;;;;;;;;;;23.20;51.90;;;;;;484376;246;1090;-74
2022/09/16 03:00:45;;;;;;;;;;;23.10;52.30;;;;;;484324;246;1170;-74
2022/09/16 03:02:45;;;;;;;;;;;23.10;52.40;;;;;;484493;246;1464;-74
2022/09/16 03:04:47;;;;;;;;;;;23.10;52.30;;;;;;484303;246;1208;-74
2022/09/16 03:06:48;;;;;;;;;;;23.10;52.20;;;;;;484469;246;2165;-74
2022/09/16 03:08:49;;;;;;;;;;;23.20;52.10;;;;;;484309;246;1109;-74
2022/09/16 03:10:50;;;;;;;;;;;23.10;52.10;;;;;;484297;246;1075;-74
2022/09/16 03:12:52;;;;;;;;;;;23.10;52.30;;;;;;484318;246;1126;-74
2022/09/16 03:14:53;;;;;;;;;;;23.00;52.40;;;;;;484307;246;1064;-74
2022/09/16 03:16:55;;;;;;;;;;;23.10;52.30;;;;;;484535;246;1349;-74
2022/09/16 03:18:57;;;;;;;;;;;23.10;52.30;;;;;;484283;246;1144;-74
2022/09/16 03:20:57;;;;;;;;;;;23.30;52.00;;;;;;484385;246;1382;-74
2022/09/16 03:22:59;;;;;;;;;;;23.20;52.00;;;;;;484274;246;1226;-74
2022/09/16 03:25:00;;;;;;;;;;;23.10;52.30;;;;;;484221;246;1231;-74
2022/09/16 03:27:01;;;;;;;;;;;23.00;52.60;;;;;;484302;246;2173;-74
2022/09/16 03:29:03;;;;;;;;;;;23.00;52.60;;;;;;484401;246;1114;-74
2022/09/16 03:31:04;;;;;;;;;;;23.00;52.70;;;;;;484259;246;1185;-74
2022/09/16 03:33:05;;;;;;;;;;;22.90;52.80;;;;;;484491;246;1451;-74
2022/09/16 03:35:07;;;;;;;;;;;22.80;53.00;;;;;;484291;246;1136;-74
2022/09/16 03:37:08;;;;;;;;;;;22.80;53.00;;;;;;484669;246;1271;-74
2022/09/16 03:39:10;;;;;;;;;;;23.00;52.70;;;;;;484230;246;1217;-74
2022/09/16 03:41:11;;;;;;;;;;;22.90;52.90;;;;;;484325;246;1133;-74
2022/09/16 03:43:12;;;;;;;;;;;22.90;52.80;;;;;;484282;246;1193;-74
2022/09/16 03:45:14;;;;;;;;;;;22.90;52.90;;;;;;484296;246;1205;-74
2022/09/16 03:47:15;;;;;;;;;;;22.70;53.30;;;;;;484360;246;2196;-74
2022/09/16 03:49:16;;;;;;;;;;;22.70;53.30;;;;;;484520;246;1072;-74
2022/09/16 03:51:18;;;;;;;;;;;23.00;52.80;;;;;;484277;246;1220;-74
2022/09/16 03:53:19;;;;;;;;;;;23.10;52.30;;;;;;484301;246;1239;-74
2022/09/16 03:55:20;;;;;;;;;;;23.10;52.30;;;;;;484298;246;1133;-74
2022/09/16 03:57:22;;;;;;;;;;;23.00;52.50;;;;;;484337;246;1114;-74
2022/09/16 03:59:23;;;;;;;;;;;22.90;52.80;;;;;;484389;246;1039;-74
2022/09/16 04:01:24;;;;;;;;;;;22.90;52.80;;;;;;484587;246;1128;-74
2022/09/16 04:03:26;;;;;;;;;;;22.90;52.60;;;;;;484315;246;1107;-74
2022/09/16 04:05:27;;;;;;;;;;;22.90;52.70;;;;;;484444;246;1022;-74
2022/09/16 04:07:28;;;;;;;;;;;22.80;53.10;;;;;;484344;246;2195;-74
2022/09/16 04:09:29;;;;;;;;;;;22.90;52.80;;;;;;484258;246;1177;-74
2022/09/16 04:11:31;;;;;;;;;;;23.00;52.60;;;;;;484500;246;1064;-74
2022/09/16 04:13:32;;;;;;;;;;;23.10;52.30;;;;;;484436;246;1092;-74
2022/09/16 04:15:34;;;;;;;;;;;23.20;52.20;;;;;;484412;246;1118;-74
2022/09/16 04:17:35;;;;;;;;;;;23.30;51.80;;;;;;484311;246;1082;-74
2022/09/16 04:19:36;;;;;;;;;;;23.20;51.90;;;;;;484232;246;1424;-74
2022/09/16 04:21:37;;;;;;;;;;;23.20;51.90;;;;;;484290;246;1148;-74
2022/09/16 04:23:39;;;;;;;;;;;23.30;51.80;;;;;;484609;246;1228;-74
2022/09/16 04:25:40;;;;;;;;;;;23.10;52.00;;;;;;484289;242;1363;-74
2022/09/16 04:27:41;;;;;;;;;;;23.20;51.80;;;;;;484295;246;2200;-74
2022/09/16 04:29:43;;;;;;;;;;;23.20;51.90;;;;;;484265;246;1273;-74
2022/09/16 04:31:44;;;;;;;;;;;23.40;51.50;;;;;;484297;246;1097;-74
2022/09/16 04:33:45;;;;;;;;;;;23.30;51.70;;;;;;484401;246;1146;-74
2022/09/16 04:35:47;;;;;;;;;;;23.00;52.20;;;;;;484190;246;1163;-74
2022/09/16 04:37:48;;;;;;;;;;;23.00;52.40;;;;;;484499;246;1098;-74
2022/09/16 04:39:50;;;;;;;;;;;23.10;52.30;;;;;;484241;246;1104;-74
2022/09/16 04:41:51;;;;;;;;;;;23.00;52.20;;;;;;484284;246;1304;-74
2022/09/16 04:43:52;;;;;;;;;;;22.90;52.40;;;;;;484279;246;1016;-74
2022/09/16 04:45:54;;;;;;;;;;;23.00;52.20;;;;;;484377;246;1083;-74
2022/09/16 04:47:55;;;;;;;;;;;23.10;51.80;;;;;;484237;246;2196;-74
2022/09/16 04:49:56;;;;;;;;;;;23.00;52.20;;;;;;484252;246;971;-74
2022/09/16 04:51:58;;;;;;;;;;;23.10;52.30;;;;;;484280;246;1032;-74
2022/09/16 04:54:00;;;;;;;;;;;23.10;51.80;;;;;;484236;246;1083;-74
2022/09/16 04:56:00;;;;;;;;;;;23.10;52.00;;;;;;484255;246;1390;-74
2022/09/16 04:58:02;;;;;;;;;;;23.40;51.40;;;;;;484308;246;1154;-74
2022/09/16 05:00:03;;;;;;;;;;;23.30;51.40;;;;;;484186;246;1227;-74
2022/09/16 05:02:04;;;;;;;;;;;23.20;51.50;;;;;;484238;246;1190;-74
2022/09/16 05:04:06;;;;;;;;;;;23.20;51.50;;;;;;484188;246;1208;-74
2022/09/16 05:06:07;;;;;;;;;;;23.30;51.60;;;;;;484261;246;1208;-74
2022/09/16 05:08:08;;;;;;;;;;;23.10;51.70;;;;;;484108;246;2214;-74
2022/09/16 05:10:10;;;;;;;;;;;23.10;51.80;;;;;;484137;246;1196;-74
2022/09/16 05:12:11;;;;;;;;;;;23.00;52.00;;;;;;484266;246;1155;-74
2022/09/16 05:14:12;;;;;;;;;;;23.10;52.00;;;;;;484237;246;1230;-74
2022/09/16 05:16:13;;;;;;;;;;;23.00;52.20;;;;;;484268;246;1132;-74
2022/09/16 05:18:15;;;;;;;;;;;23.00;52.20;;;;;;484238;246;1128;-74
2022/09/16 05:20:17;;;;;;;;;;;23.10;52.00;;;;;;484367;246;1237;-74
2022/09/16 05:22:18;;;;;;;;;;;23.20;51.80;;;;;;484276;246;1172;-74
2022/09/16 05:24:19;;;;;;;;;;;23.30;51.50;;;;;;484112;246;1163;-74
2022/09/16 05:26:21;;;;;;;;;;;23.20;51.50;;;;;;484220;246;1104;-74
2022/09/16 05:28:22;;;;;;;;;;;23.20;51.60;;;;;;484210;246;2168;-74
2022/09/16 05:30:23;;;;;;;;;;;23.30;51.40;;;;;;484356;246;1126;-74
2022/09/16 05:32:25;;;;;;;;;;;23.30;51.40;;;;;;484259;246;1157;-74
2022/09/16 05:34:27;;;;;;;;;;;23.10;51.60;;;;;;484304;246;1066;-74
2022/09/16 05:36:28;;;;;;;;;;;23.00;52.00;;;;;;484194;246;1833;-74
2022/09/16 05:38:29;;;;;;;;;;;23.20;51.80;;;;;;484309;246;1122;-74
2022/09/16 05:40:30;;;;;;;;;;;23.20;51.60;;;;;;484236;246;1129;-74
2022/09/16 05:42:32;;;;;;;;;;;23.20;51.30;;;;;;484207;246;1123;-74
2022/09/16 05:44:33;;;;;;;;;;;23.20;51.40;;;;;;484233;246;1583;-74
2022/09/16 05:46:34;;;;;;;;;;;23.30;51.20;;;;;;484134;246;1134;-74
2022/09/16 05:48:36;;;;;;;;;;;23.20;51.30;;;;;;484159;246;2219;-74
2022/09/16 05:50:37;;;;;;;;;;;23.10;51.60;;;;;;484268;246;1191;-74
2022/09/16 05:52:38;;;;;;;;;;;23.10;51.60;;;;;;484191;246;1227;-74
2022/09/16 05:54:40;;;;;;;;;;;23.10;51.40;;;;;;484350;246;1124;-74
2022/09/16 05:56:41;;;;;;;;;;;23.10;51.50;;;;;;484175;246;1096;-74
2022/09/16 05:58:42;;;;;;;;;;;23.20;51.50;;;;;;484332;246;1237;-74
2022/09/16 06:00:45;;;;;;;;;;;23.20;51.30;;;;;;484194;246;1167;-74
2022/09/16 06:02:45;;;;;;;;;;;23.20;51.30;;;;;;484154;246;1399;-74
2022/09/16 06:04:46;;;;;;;;;;;23.20;51.30;;;;;;484070;246;1157;-74
2022/09/16 06:06:48;;;;;;;;;;;23.30;51.30;;;;;;484145;246;1123;-74
2022/09/16 06:08:49;;;;;;;;;;;23.20;51.30;;;;;;484255;246;2200;-74
2022/09/16 06:10:50;;;;;;;;;;;23.30;51.30;;;;;;484150;246;1094;-74
2022/09/16 06:12:52;;;;;;;;;;;23.40;51.10;;;;;;484164;246;1110;-74
2022/09/16 06:14:53;;;;;;;;;;;23.70;50.60;;;;;;484206;246;1541;-74
2022/09/16 06:16:54;;;;;;;;;;;23.90;50.00;;;;;;484206;246;1132;-74
2022/09/16 06:18:56;;;;;;;;;;;24.20;49.30;;;;;;484099;246;1123;-74
2022/09/16 06:20:57;;;;;;;;;;;24.40;48.90;;;;;;484140;246;1115;-74
2022/09/16 06:22:59;;;;;;;;;;;24.50;48.70;;;;;;484118;246;1180;-74
2022/09/16 06:25:00;;;;;;;;;;;24.50;48.60;;;;;;483996;246;1090;-74
2022/09/16 06:27:01;;;;;;;;;;;24.60;48.50;;;;;;484188;246;1181;-74
2022/09/16 06:29:04;;;;;;;;;;;24.60;48.30;;;;;;484108;246;2199;-74
2022/09/16 06:31:04;;;;;;;;;;;24.60;48.30;;;;;;484069;246;1400;-74
2022/09/16 06:33:05;;;;;;;;;;;24.70;48.20;;;;;;484208;246;1226;-74
2022/09/16 06:35:07;;;;;;;;;;;24.70;48.20;;;;;;484211;246;1209;-74
2022/09/16 06:37:11;;;;;;;;;;;24.70;48.10;;;;;;484002;246;1272;-74
2022/09/16 06:39:09;;;;;;;;;;;24.80;48.00;;;;;;483845;246;1336;-74
2022/09/16 06:41:19;;;;;;;;;;;24.80;48.00;;;;;;484045;246;1216;-74
2022/09/16 06:43:21;;;;;;;;;;;24.80;48.00;;;;;;484103;246;1253;-74
2022/09/16 06:45:22;;;;;;;;;;;24.90;47.70;;;;;;484084;246;1226;-74
2022/09/16 06:47:23;;;;;;;;;;;24.90;47.60;;;;;;484152;246;1228;-74
2022/09/16 06:49:25;;;;;;;;;;;24.90;47.60;;;;;;484137;246;2425;-74
2022/09/16 06:51:26;;;;;;;;;;;25.00;47.60;;;;;;483999;246;1130;-74
2022/09/16 06:53:27;;;;;;;;;;;25.00;47.60;;;;;;484090;246;1222;-74
2022/09/16 06:55:29;;;;;;;;;;;25.00;47.60;;;;;;484064;246;1226;-74
2022/09/16 06:57:30;;;;;;;;;;;24.90;47.50;;;;;;484064;246;1125;-74
2022/09/16 06:59:31;;;;;;;;;;;25.00;47.50;;;;;;483975;246;1176;-74
2022/09/16 07:01:33;;;;;;;;;;;25.00;47.50;;;;;;484127;246;1409;-74
2022/09/16 07:03:34;;;;;;;;;;;25.10;47.50;;;;;;484000;246;1171;-74
2022/09/16 07:05:35;;;;;;;;;;;25.10;47.40;;;;;;484083;246;1167;-74
2022/09/16 07:07:38;;;;;;;;;;;25.10;47.30;;;;;;483972;246;1206;-74
2022/09/16 07:09:38;;;;;;;;;;;25.10;47.20;;;;;;484043;246;2184;-74
2022/09/16 07:11:40;;;;;;;;;;;25.20;47.20;;;;;;484142;246;1154;-74
2022/09/16 07:13:41;;;;;;;;;;;25.30;46.90;;;;;;484150;246;1149;-74
2022/09/16 07:15:42;;;;;;;;;;;25.30;46.90;;;;;;484140;246;1068;-74
2022/09/16 07:17:44;;;;;;;;;;;25.20;47.00;;;;;;484182;246;1153;-74
2022/09/16 07:19:46;;;;;;;;;;;25.20;47.10;;;;;;484126;246;1184;-74
2022/09/16 07:21:46;;;;;;;;;;;25.20;47.00;;;;;;484143;246;1444;-74
2022/09/16 07:23:48;;;;;;;;;;;25.20;46.90;;;;;;484195;246;1142;-74
2022/09/16 07:25:49;;;;;;;;;;;25.30;47.00;;;;;;484146;246;1112;-74
2022/09/16 07:27:51;;;;;;;;;;;25.20;47.00;;;;;;484068;246;1129;-74
2022/09/16 07:29:53;;;;;;;;;;;25.30;46.80;;;;;;484090;246;2116;-74
2022/09/16 07:31:54;;;;;;;;;;;25.30;46.90;;;;;;484047;246;1114;-74
2022/09/16 07:33:56;;;;;;;;;;;25.30;47.00;;;;;;484109;246;1218;-74
2022/09/16 07:35:57;;;;;;;;;;;25.30;47.00;;;;;;484106;246;1223;-74
2022/09/16 07:37:59;;;;;;;;;;;25.40;46.80;;;;;;484127;246;1147;-74
2022/09/16 07:40:00;;;;;;;;;;;25.40;46.60;;;;;;484082;246;1285;-74
2022/09/16 07:42:02;;;;;;;;;;;25.30;46.80;;;;;;484089;246;1209;-74
2022/09/16 07:44:03;;;;;;;;;;;25.20;46.90;;;;;;484015;246;1494;-74
2022/09/16 07:46:04;;;;;;;;;;;25.20;47.10;;;;;;484010;246;1255;-74
2022/09/16 07:48:05;;;;;;;;;;;25.20;47.10;;;;;;484053;246;2192;-74
2022/09/16 07:50:07;;;;;;;;;;;25.20;47.10;;;;;;484081;246;1126;-74
2022/09/16 07:52:08;;;;;;;;;;;25.20;47.00;;;;;;484154;246;1065;-74
2022/09/16 07:54:09;;;;;;;;;;;25.20;47.00;;;;;;484007;246;1108;-74
2022/09/16 07:56:11;;;;;;;;;;;25.20;47.00;;;;;;484058;246;1226;-74
2022/09/16 07:58:12;;;;;;;;;;;25.20;47.00;;;;;;484101;246;1446;-74
2022/09/16 08:00:15;;;;;;;;;;;25.30;47.10;;;;;;484165;246;1140;-74
2022/09/16 08:02:15;;;;;;;;;;;25.30;47.10;;;;;;484049;246;1477;-74
2022/09/16 08:04:17;;;;;;;;;;;25.20;47.00;;;;;;484109;246;1099;-74
2022/09/16 08:06:18;;;;;;;;;;;25.30;47.00;;;;;;483996;246;1101;-74
2022/09/16 08:08:19;;;;;;;;;;;25.20;47.00;;;;;;484051;246;2220;-74
2022/09/16 08:10:21;;;;;;;;;;;25.20;47.10;;;;;;484122;246;1107;-74
2022/09/16 08:12:22;;;;;;;;;;;25.20;47.20;;;;;;484045;246;1156;-74
2022/09/16 08:14:23;;;;;;;;;;;25.10;47.20;;;;;;484023;246;1316;-74
2022/09/16 08:16:24;;;;;;;;;;;25.20;47.20;;;;;;484004;242;1173;-74
2022/09/16 08:18:26;;;;;;;;;;;25.20;47.20;;;;;;484100;246;1188;-74
2022/09/16 08:20:27;;;;;;;;;;;25.20;47.20;;;;;;483960;246;1206;-74
2022/09/16 08:22:28;;;;;;;;;;;25.20;47.10;;;;;;483997;246;1226;-73
2022/09/16 08:24:30;;;;;;;;;;;25.20;47.10;;;;;;483924;246;1154;-74
2022/09/16 08:26:31;;;;;;;;;;;25.20;47.10;;;;;;483951;246;1105;-74
2022/09/16 08:28:33;;;;;;;;;;;25.20;47.10;;;;;;483952;246;2203;-74
2022/09/16 08:30:34;;;;;;;;;;;25.20;47.20;;;;;;483929;246;1281;-74
2022/09/16 08:32:35;;;;;;;;;;;25.30;47.00;;;;;;484062;246;1122;-74
2022/09/16 08:34:36;;;;;;;;;;;25.30;47.00;;;;;;484185;246;1213;-74
2022/09/16 08:36:38;;;;;;;;;;;25.20;46.90;;;;;;484108;242;1324;-74
2022/09/16 08:38:39;;;;;;;;;;;25.30;47.00;;;;;;484145;246;1172;-74
2022/09/16 08:40:41;;;;;;;;;;;25.30;47.10;;;;;;484122;246;1171;-74
2022/09/16 08:42:42;;;;;;;;;;;25.30;47.00;;;;;;484085;246;1103;-74
2022/09/16 08:44:43;;;;;;;;;;;25.20;47.00;;;;;;484054;246;1122;-74
2022/09/16 08:46:44;;;;;;;;;;;24.80;47.60;;;;;;484161;246;1194;-74
2022/09/16 08:48:46;;;;;;;;;;;24.80;47.80;;;;;;484104;246;2161;-74
2022/09/16 08:50:47;;;;;;;;;;;24.80;47.80;;;;;;484071;246;1317;-75
2022/09/16 08:52:48;;;;;;;;;;;24.80;47.80;;;;;;484070;246;1137;-74
2022/09/16 08:54:50;;;;;;;;;;;24.80;47.90;;;;;;484096;246;1180;-77
2022/09/16 08:56:51;;;;;;;;;;;24.80;47.80;;;;;;484015;246;1116;-74
2022/09/16 08:58:52;;;;;;;;;;;24.90;47.60;;;;;;484112;243;1072;-74
2022/09/16 09:00:54;;;;;;;;;;;24.90;47.60;;;;;;484122;246;1135;-74
2022/09/16 09:02:55;;;;;;;;;;;24.90;47.60;;;;;;484113;246;1211;-74
2022/09/16 09:04:57;;;;;;;;;;;24.80;47.70;;;;;;483977;246;1191;-74
2022/09/16 09:06:58;;;;;;;;;;;24.90;47.70;;;;;;484043;246;1489;-74
2022/09/16 09:09:00;;;;;;;;;;;24.90;47.70;;;;;;484068;246;2200;-74
2022/09/16 09:11:01;;;;;;;;;;;24.90;47.70;;;;;;484107;246;1268;-74
2022/09/16 09:13:02;;;;;;;;;;;24.90;47.80;;;;;;484005;246;1178;-74
2022/09/16 09:15:04;;;;;;;;;;;25.00;47.50;;;;;;484011;246;1145;-74
2022/09/16 09:17:05;;;;;;;;;;;24.90;47.50;;;;;;484061;246;1168;-74
2022/09/16 09:19:06;;;;;;;;;;;25.00;47.50;;;;;;484109;246;1107;-74
2022/09/16 09:21:07;;;;;;;;;;;24.90;47.70;;;;;;484061;246;1086;-74
2022/09/16 09:23:09;;;;;;;;;;;24.90;47.70;;;;;;484117;246;1210;-74
2022/09/16 09:25:10;;;;;;;;;;;24.80;47.80;;;;;;484057;246;1062;-74
2022/09/16 09:27:11;;;;;;;;;;;24.70;48.10;;;;;;484159;246;1339;-74
2022/09/16 09:29:13;;;;;;;;;;;24.60;48.30;;;;;;484095;246;2204;-74
2022/09/16 09:31:14;;;;;;;;;;;24.50;48.50;;;;;;484207;246;1256;-74
2022/09/16 09:33:16;;;;;;;;;;;24.50;48.80;;;;;;484142;242;1050;-74
2022/09/16 09:35:17;;;;;;;;;;;24.40;48.90;;;;;;484132;246;1129;-74
2022/09/16 09:37:18;;;;;;;;;;;24.40;49.00;;;;;;484203;242;1152;-74
2022/09/16 09:39:19;;;;;;;;;;;24.40;49.10;;;;;;483956;243;1347;-74
2022/09/16 09:41:21;;;;;;;;;;;24.40;49.10;;;;;;484144;246;1050;-74
2022/09/16 09:43:22;;;;;;;;;;;24.40;49.20;;;;;;484133;246;1121;-74
2022/09/16 09:45:23;;;;;;;;;;;24.30;49.30;;;;;;484105;246;1045;-74
2022/09/16 09:47:26;;;;;;;;;;;24.40;49.30;;;;;;484169;246;1037;-74
2022/09/16 09:49:26;;;;;;;;;;;24.40;49.40;;;;;;484106;246;2200;-74
2022/09/16 09:51:28;;;;;;;;;;;24.30;49.40;;;;;;484157;246;1036;-74
2022/09/16 09:53:29;;;;;;;;;;;24.30;49.40;;;;;;484173;246;1110;-74
2022/09/16 09:55:30;;;;;;;;;;;24.30;49.50;;;;;;484179;246;1189;-74
2022/09/16 09:57:32;;;;;;;;;;;24.30;49.70;;;;;;484161;246;1082;-74
2022/09/16 09:59:33;;;;;;;;;;;24.20;49.70;;;;;;484188;242;1096;-74
2022/09/16 10:01:35;;;;;;;;;;;24.20;49.80;;;;;;484081;246;1065;-74
2022/09/16 10:03:37;;;;;;;;;;;24.20;49.80;;;;;;484207;246;1023;-74
2022/09/16 10:05:37;;;;;;;;;;;24.20;49.80;;;;;;484108;242;1528;-74
2022/09/16 10:07:39;;;;;;;;;;;24.10;49.80;;;;;;484429;246;1041;-74
2022/09/16 10:09:40;;;;;;;;;;;24.10;49.80;;;;;;484096;246;2194;-74
2022/09/16 10:11:41;;;;;;;;;;;24.10;49.80;;;;;;484085;242;1092;-74
2022/09/16 10:13:43;;;;;;;;;;;24.00;49.90;;;;;;484101;246;1144;-73
2022/09/16 10:15:44;;;;;;;;;;;24.00;49.90;;;;;;484075;246;1216;-74
2022/09/16 10:17:46;;;;;;;;;;;24.00;49.90;;;;;;484068;246;1150;-74
2022/09/16 10:19:47;;;;;;;;;;;23.90;50.00;;;;;;484154;246;1330;-74
2022/09/16 10:21:49;;;;;;;;;;;23.80;50.20;;;;;;483945;246;1166;-74
2022/09/16 10:23:50;;;;;;;;;;;23.70;50.40;;;;;;484098;246;1366;-74
2022/09/16 10:25:51;;;;;;;;;;;23.70;50.40;;;;;;484096;246;1163;-74
2022/09/16 10:27:52;;;;;;;;;;;23.70;50.20;;;;;;483895;246;1148;-74
2022/09/16 10:29:54;;;;;;;;;;;23.70;50.10;;;;;;484105;246;2148;-74
2022/09/16 10:31:57;;;;;;;;;;;23.70;49.90;;;;;;484096;246;1076;-74
2022/09/16 10:33:56;;;;;;;;;;;23.70;49.80;;;;;;483928;246;1885;-73
2022/09/16 10:35:59;;;;;;;;;;;23.80;49.70;;;;;;484096;246;1123;-73
2022/09/16 10:37:59;;;;;;;;;;;23.70;49.70;;;;;;483921;246;1974;-73
2022/09/16 10:40:04;;;;;;;;;;;23.70;49.70;;;;;;484066;246;1157;-74
2022/09/16 10:42:02;;;;;;;;;;;23.60;49.80;;;;;;483833;246;1496;-74
2022/09/16 10:44:04;;;;;;;;;;;23.50;49.90;;;;;;484061;246;1258;-74
2022/09/16 10:46:05;;;;;;;;;;;23.50;50.10;;;;;;484029;246;1058;-74
2022/09/16 10:48:07;;;;;;;;;;;23.50;50.10;;;;;;484018;246;1224;-74
2022/09/16 10:50:08;;;;;;;;;;;23.50;50.10;;;;;;484184;246;2164;-74
2022/09/16 10:52:09;;;;;;;;;;;23.40;50.00;;;;;;484168;246;1176;-74
2022/09/16 10:54:11;;;;;;;;;;;23.40;50.10;;;;;;484075;246;1128;-74
2022/09/16 10:56:12;;;;;;;;;;;23.40;50.20;;;;;;484111;246;1252;-74
2022/09/16 10:58:13;;;;;;;;;;;23.40;50.20;;;;;;484130;246;1129;-74
2022/09/16 11:00:15;;;;;;;;;;;23.40;50.20;;;;;;484118;246;1253;-74
2022/09/16 11:02:16;;;;;;;;;;;23.30;50.30;;;;;;484093;246;1130;-74
2022/09/16 11:04:17;;;;;;;;;;;23.20;50.40;;;;;;484251;246;1089;-74
2022/09/16 11:06:18;;;;;;;;;;;23.30;50.40;;;;;;483960;246;1098;-74
2022/09/16 11:08:20;;;;;;;;;;;23.30;50.40;;;;;;484094;246;1078;-74
2022/09/16 11:10:22;;;;;;;;;;;23.30;50.40;;;;;;484056;246;2187;-74
2022/09/16 11:12:24;;;;;;;;;;;23.30;50.50;;;;;;484173;246;1218;-74
2022/09/16 11:14:25;;;;;;;;;;;23.30;50.60;;;;;;484086;246;1179;-74
2022/09/16 11:16:26;;;;;;;;;;;23.20;50.70;;;;;;484077;246;1107;-74
2022/09/16 11:18:27;;;;;;;;;;;23.10;50.80;;;;;;484153;246;1175;-74
2022/09/16 11:20:29;;;;;;;;;;;23.10;50.80;;;;;;484064;246;1214;-74
2022/09/16 11:22:30;;;;;;;;;;;23.10;50.90;;;;;;484239;246;1131;-74
2022/09/16 11:24:32;;;;;;;;;;;23.10;50.90;;;;;;484148;246;1063;-74
2022/09/16 11:26:34;;;;;;;;;;;23.00;50.90;;;;;;484089;246;1195;-74
2022/09/16 11:28:34;;;;;;;;;;;23.00;51.00;;;;;;483955;246;1219;-74
2022/09/16 11:30:36;;;;;;;;;;;22.90;51.10;;;;;;484057;246;2200;-74
2022/09/16 11:32:37;;;;;;;;;;;22.80;51.10;;;;;;484146;246;1558;-74
2022/09/16 11:34:38;;;;;;;;;;;22.90;51.20;;;;;;484160;246;1405;-74
2022/09/16 11:36:40;;;;;;;;;;;22.90;51.10;;;;;;484001;246;1124;-74
2022/09/16 11:38:41;;;;;;;;;;;22.90;51.20;;;;;;484154;246;1030;-74
2022/09/16 11:40:42;;;;;;;;;;;22.80;51.30;;;;;;484164;246;1081;-74
2022/09/16 11:42:44;;;;;;;;;;;22.80;51.40;;;;;;484157;246;1099;-74
2022/09/16 11:44:45;;;;;;;;;;;22.80;51.40;;;;;;484094;246;1123;-74
2022/09/16 11:46:46;;;;;;;;;;;22.80;51.40;;;;;;484172;246;1113;-74
2022/09/16 11:48:48;;;;;;;;;;;22.80;51.30;;;;;;484075;246;1096;-74
2022/09/16 11:50:49;;;;;;;;;;;22.90;51.20;;;;;;484040;246;2157;-74
2022/09/16 11:52:50;;;;;;;;;;;22.80;51.10;;;;;;484126;246;1140;-74
2022/09/16 11:54:52;;;;;;;;;;;22.90;51.10;;;;;;484043;246;1159;-74
2022/09/16 11:56:53;;;;;;;;;;;22.80;51.00;;;;;;484039;246;1158;-74